Aérodrome :
LOGIN :

S'inscrire | Disclaimer

   EN    FR    IT 

 










Légende :    VFR   VFR Marginal   IFR   IFR Intensif   IFR Très Intensif
Visi : 
Plafond : 
>= 8 km
>= 3000ft
5 à 8 km
1000 à 3000 ft
1500m à 5 km
500 à 1000 ft
800 à 1500m
200 à 500 ft
< 800m
< 200 ft
Symboles :   Orages  Brouillard  Fortes neiges  Fortes précipitations  Vent > 20 kt
SIGMETs :   Divers  Orages  Givrage  Turbulence  Onde Orograph.  Cendres Volcan.







- Altitude de l'aérodrome : 1302 ft
- Code IATA : GNB
- Voir les cartes d'approche


LFLS - Grenoble / St. Geoirs

DERNIER METAR :
  • 262200Z AUTO 31003KT 230V350 CAVOK 20/11 Q1017

METARs EXPIRÉS :
  • 262130Z AUTO 26005KT 170V290 CAVOK 21/11 Q1017
  • 262100Z AUTO 31004KT 240V040 CAVOK 20/13 Q1017
  • 262030Z AUTO 24007KT 180V300 CAVOK 22/13 Q1017
  • 262000Z AUTO 19013KT CAVOK 22/13 Q1017
  • 261930Z AUTO 19015KT CAVOK 23/13 Q1016

TAF TAF LFLS
Valide du 26 à 15h jusqu'au 27 à 15h UTC


261400Z 2615/2715 22010KT CAVOK
BECMG 2700/2702 09007KT
BECMG 2711/2713 22010KT
ATIS : +33 4 76 65 55 89
Pas de NOTAMs connus pour ce terrain.



MET'MAP, la Météo Aéronautique d'un coup d'oeil ! - Copyright ORBIFLY Décembre 2007 - Disclaimer

ORBIFLY MET'MAP TEAM :

Programmation & Développement : Alexandra Zaïnal
Conception & Développement : Baudouin d'Aumeries
Co-Programmation & Développement : Marc-Olivier Méhu
Soutien technique & logistique : Manuel Goepfert

Contact : metmap@orbifly.com




SOURCES & CREDITS :

   NOAA